createdAt,value
2019-03-03T00:00:42.870Z,15.10
2019-03-03T00:03:11.355Z,14.83
2019-03-03T00:05:39.806Z,16.17
2019-03-03T00:08:08.220Z,15.90
2019-03-03T00:10:37.025Z,15.80
2019-03-03T00:13:05.512Z,15.50
2019-03-03T00:15:34.036Z,15.77
2019-03-03T00:18:02.451Z,15.03
2019-03-03T00:20:30.894Z,16.10
2019-03-03T00:22:59.385Z,15.40
2019-03-03T00:25:27.833Z,16.40
2019-03-03T00:27:56.249Z,15.67
2019-03-03T00:30:24.842Z,15.90
2019-03-03T00:32:53.296Z,15.97
2019-03-03T00:35:21.732Z,16.13
2019-03-03T00:37:54.476Z,16.10
2019-03-03T00:40:39.467Z,16.33
2019-03-03T00:43:18.899Z,16.57
2019-03-03T00:46:05.161Z,16.50
2019-03-03T00:48:35.215Z,16.90
2019-03-03T00:51:05.828Z,16.10
2019-03-03T00:53:38.717Z,16.73
2019-03-03T00:56:20.912Z,15.90
2019-03-03T00:59:03.324Z,16.83
2019-03-03T01:01:35.873Z,16.13
2019-03-03T01:04:06.273Z,15.23
2019-03-03T01:06:38.941Z,15.90
2019-03-03T01:09:42.694Z,17.13
2019-03-03T01:12:12.851Z,16.70
2019-03-03T01:14:48.730Z,14.73
2019-03-03T01:17:27.804Z,16.80
2019-03-03T01:20:06.943Z,17.50
2019-03-03T01:22:37.023Z,16.53
2019-03-03T01:25:07.091Z,16.80
2019-03-03T01:27:35.605Z,17.87
2019-03-03T01:30:06.627Z,16.23
2019-03-03T01:32:35.070Z,17.77
2019-03-03T01:35:03.970Z,17.57
2019-03-03T01:37:32.405Z,17.53
2019-03-03T01:40:00.825Z,18.47
2019-03-03T01:42:29.280Z,19.23
2019-03-03T01:44:57.695Z,17.53
2019-03-03T01:47:26.140Z,17.23
2019-03-03T01:49:54.555Z,17.80
2019-03-03T01:52:23.081Z,16.80
2019-03-03T01:54:51.492Z,16.93
2019-03-03T01:57:19.935Z,17.90
2019-03-03T01:59:48.369Z,17.67
2019-03-03T02:02:16.793Z,17.07
2019-03-03T02:04:45.203Z,18.67
2019-03-03T02:07:13.640Z,16.60
2019-03-03T02:09:42.221Z,17.30
2019-03-03T02:12:10.995Z,18.00
2019-03-03T02:14:39.426Z,16.30
2019-03-03T02:17:08.603Z,17.40
2019-03-03T02:19:37.021Z,16.73
2019-03-03T02:22:05.526Z,17.30
2019-03-03T02:24:34.024Z,16.47
2019-03-03T02:27:02.467Z,17.37
2019-03-03T02:29:30.959Z,16.87
2019-03-03T02:31:59.380Z,17.60
2019-03-03T02:34:27.822Z,17.33
2019-03-03T02:36:56.238Z,17.53
2019-03-03T02:39:24.683Z,17.87
2019-03-03T02:41:53.103Z,17.20
2019-03-03T02:44:21.551Z,17.30
2019-03-03T02:46:49.967Z,16.17
2019-03-03T02:49:18.412Z,17.93
2019-03-03T02:51:46.847Z,17.77
2019-03-03T02:54:15.285Z,16.03
2019-03-03T02:56:43.699Z,17.93
2019-03-03T02:59:12.212Z,16.90
2019-03-03T03:01:42.277Z,17.57
2019-03-03T03:04:11.098Z,16.97
2019-03-03T03:06:41.223Z,17.73
2019-03-03T03:09:11.380Z,17.30
2019-03-03T03:11:47.422Z,16.80
2019-03-03T03:14:20.479Z,17.30
2019-03-03T03:16:53.420Z,17.13
2019-03-03T03:19:23.518Z,17.97
2019-03-03T03:21:59.535Z,16.70
2019-03-03T03:24:44.470Z,15.43
2019-03-03T03:27:30.542Z,16.60
2019-03-03T03:30:12.913Z,16.40
2019-03-03T03:32:42.977Z,16.03
2019-03-03T03:35:18.821Z,14.70
2019-03-03T03:38:04.737Z,16.77
2019-03-03T03:40:34.808Z,16.30
2019-03-03T03:43:10.440Z,16.27
2019-03-03T03:45:56.483Z,15.80
2019-03-03T03:48:29.030Z,16.20
2019-03-03T03:51:05.167Z,15.00
2019-03-03T03:53:47.168Z,15.70
2019-03-03T03:56:19.648Z,15.00
2019-03-03T03:58:55.278Z,16.13
2019-03-03T04:01:41.814Z,15.00
2019-03-03T04:04:14.560Z,13.90
2019-03-03T04:06:47.417Z,14.43
2019-03-03T04:09:25.961Z,15.17
2019-03-03T04:12:13.844Z,12.70
2019-03-03T04:14:43.922Z,14.30
2019-03-03T04:17:28.952Z,13.00
2019-03-03T04:20:04.710Z,12.17
2019-03-03T04:22:34.843Z,12.47
2019-03-03T04:25:13.920Z,37.13
2019-03-03T04:27:43.981Z,10.80
2019-03-03T04:30:23.340Z,11.63
2019-03-03T04:32:53.399Z,11.47
2019-03-03T04:35:32.398Z,11.60
2019-03-03T04:38:05.137Z,10.07
2019-03-03T04:40:35.207Z,9.70
2019-03-03T04:43:05.259Z,9.80
2019-03-03T04:45:38.040Z,9.67
2019-03-03T04:48:13.527Z,9.27
2019-03-03T04:50:49.288Z,9.50
2019-03-03T04:53:31.293Z,9.33
2019-03-03T04:56:01.377Z,8.00
2019-03-03T04:58:40.223Z,8.40
2019-03-03T05:01:10.302Z,7.83
2019-03-03T05:03:45.840Z,9.00
2019-03-03T05:06:15.917Z,8.90
2019-03-03T05:08:48.734Z,8.47
2019-03-03T05:11:41.304Z,7.50
2019-03-03T05:14:14.402Z,8.60
2019-03-03T05:16:44.479Z,8.00
2019-03-03T05:19:13.464Z,8.20
2019-03-03T05:21:41.902Z,8.90
2019-03-03T05:24:10.317Z,7.70
2019-03-03T05:26:38.756Z,8.90
2019-03-03T05:29:07.168Z,9.00
2019-03-03T05:31:35.623Z,16.43
2019-03-03T05:34:04.038Z,8.90
2019-03-03T05:36:32.479Z,9.50
2019-03-03T05:39:00.893Z,9.23
2019-03-03T05:41:29.521Z,7.93
2019-03-03T05:43:57.934Z,9.10
2019-03-03T05:46:26.349Z,9.03
2019-03-03T05:48:54.841Z,8.53
2019-03-03T05:51:23.292Z,8.90
2019-03-03T05:53:51.713Z,9.27
2019-03-03T05:56:20.128Z,8.60
2019-03-03T05:58:48.569Z,9.20
2019-03-03T06:01:16.974Z,8.40
2019-03-03T06:03:45.419Z,8.90
2019-03-03T06:06:13.835Z,8.53
2019-03-03T06:08:42.276Z,9.50
2019-03-03T06:11:10.690Z,8.40
2019-03-03T06:13:39.128Z,8.87
2019-03-03T06:16:07.607Z,8.57
2019-03-03T06:18:36.109Z,8.33
2019-03-03T06:21:04.532Z,8.70
2019-03-03T06:23:32.973Z,9.47
2019-03-03T06:26:01.389Z,8.50
2019-03-03T06:28:29.833Z,8.70
2019-03-03T06:30:58.245Z,8.90
2019-03-03T06:33:26.686Z,9.13
2019-03-03T06:35:55.104Z,9.03
2019-03-03T06:38:23.545Z,9.57
2019-03-03T06:40:51.962Z,7.50
2019-03-03T06:43:20.411Z,8.73
2019-03-03T06:45:48.824Z,9.63
2019-03-03T06:48:17.266Z,8.27
2019-03-03T06:50:45.680Z,9.27
2019-03-03T06:53:14.117Z,8.47
2019-03-03T06:55:42.530Z,7.80
2019-03-03T06:58:10.971Z,7.80
2019-03-03T07:00:39.380Z,7.40
2019-03-03T07:03:07.836Z,7.20
2019-03-03T07:05:36.247Z,6.87
2019-03-03T07:08:04.838Z,7.23
2019-03-03T07:10:33.504Z,8.30
2019-03-03T07:13:01.927Z,6.53
2019-03-03T07:15:30.360Z,7.57
2019-03-03T07:17:58.781Z,6.77
2019-03-03T07:20:27.216Z,7.40
2019-03-03T07:22:55.630Z,7.13
2019-03-03T07:25:24.077Z,7.00
2019-03-03T07:27:52.488Z,6.70
2019-03-03T07:30:20.931Z,6.70
2019-03-03T07:32:50.977Z,6.97
2019-03-03T07:35:19.419Z,5.90
2019-03-03T07:37:47.832Z,6.77
2019-03-03T07:40:16.272Z,6.00
2019-03-03T07:42:44.686Z,6.10
2019-03-03T07:45:15.140Z,6.30
2019-03-03T07:47:43.622Z,6.47
2019-03-03T07:50:12.129Z,6.07
2019-03-03T07:52:40.546Z,5.57
2019-03-03T07:55:10.332Z,5.77
2019-03-03T07:57:38.758Z,24.97
2019-03-03T08:00:14.734Z,38.00
2019-03-03T08:02:43.151Z,43.53
2019-03-03T08:05:12.148Z,224.00
2019-03-03T08:07:41.356Z,135.07
2019-03-03T08:10:17.202Z,30.00
2019-03-03T08:12:45.627Z,10.47
2019-03-03T08:15:16.007Z,7.87
2019-03-03T08:17:44.493Z,8.40
2019-03-03T08:20:13.970Z,19.27
2019-03-03T08:22:42.385Z,6.80
2019-03-03T08:25:11.857Z,8.23
2019-03-03T08:27:40.269Z,6.57
2019-03-03T08:30:13.768Z,6.87
2019-03-03T08:32:42.279Z,7.60
2019-03-03T08:35:16.043Z,8.10
2019-03-03T08:37:44.482Z,7.00
2019-03-03T08:40:12.965Z,7.20
2019-03-03T08:42:48.769Z,6.23
2019-03-03T08:45:35.153Z,5.60
2019-03-03T08:48:05.204Z,6.73
2019-03-03T08:50:35.256Z,6.20
2019-03-03T08:53:08.408Z,6.10
2019-03-03T08:55:54.667Z,6.70
2019-03-03T08:58:27.593Z,7.20
2019-03-03T09:00:57.670Z,9.60
2019-03-03T09:03:36.633Z,7.87
2019-03-03T09:06:09.206Z,8.63
2019-03-03T09:08:51.061Z,7.60
2019-03-03T09:11:24.054Z,8.90
2019-03-03T09:14:05.679Z,11.90
2019-03-03T09:16:41.767Z,8.10
2019-03-03T09:19:28.681Z,7.83
2019-03-03T09:22:11.991Z,8.70
2019-03-03T09:24:42.045Z,12.17
2019-03-03T09:27:12.132Z,6.80
2019-03-03T09:29:54.005Z,5.83
2019-03-03T09:32:26.599Z,5.57
2019-03-03T09:34:59.716Z,4.80
2019-03-03T09:37:42.062Z,4.97
2019-03-03T09:40:29.956Z,4.20
2019-03-03T09:43:08.704Z,16.20
2019-03-03T09:45:41.622Z,3.80
2019-03-03T09:48:11.709Z,4.40
2019-03-03T09:50:47.745Z,3.90
2019-03-03T09:53:17.832Z,3.93
2019-03-03T09:55:50.804Z,3.80
2019-03-03T09:58:20.895Z,3.67
2019-03-03T10:00:53.758Z,3.67
2019-03-03T10:03:29.582Z,4.17
2019-03-03T10:06:11.553Z,3.97
2019-03-03T10:08:57.556Z,3.50
2019-03-03T10:11:44.171Z,3.60
2019-03-03T10:14:23.312Z,3.23
2019-03-03T10:16:56.190Z,3.60
2019-03-03T10:19:32.410Z,3.87
2019-03-03T10:22:04.948Z,3.40
2019-03-03T10:24:37.697Z,3.70
2019-03-03T10:27:07.806Z,3.40
2019-03-03T10:29:40.780Z,2.80
2019-03-03T10:32:22.572Z,3.03
2019-03-03T10:34:52.652Z,3.43
2019-03-03T10:37:25.628Z,3.50
2019-03-03T10:39:55.706Z,3.10
2019-03-03T10:42:40.485Z,3.50
2019-03-03T10:45:14.705Z,2.90
2019-03-03T10:47:50.581Z,3.67
2019-03-03T10:50:38.691Z,3.57
2019-03-03T10:53:08.744Z,3.57
2019-03-03T10:55:41.483Z,3.67
2019-03-03T10:58:13.943Z,3.73
2019-03-03T11:00:46.768Z,3.07
2019-03-03T11:03:16.822Z,3.70
2019-03-03T11:06:02.023Z,3.53
2019-03-03T11:08:40.898Z,4.27
2019-03-03T11:11:20.088Z,4.23
2019-03-03T11:14:00.509Z,4.27
2019-03-03T11:16:39.952Z,4.13
2019-03-03T11:19:20.119Z,4.23
2019-03-03T11:22:06.842Z,3.37
2019-03-03T11:24:42.845Z,4.23
2019-03-03T11:27:18.769Z,5.07
2019-03-03T11:30:00.955Z,4.80
2019-03-03T11:32:47.194Z,4.63
2019-03-03T11:35:17.273Z,4.97
2019-03-03T11:37:47.317Z,5.10
2019-03-03T11:40:17.480Z,4.73
2019-03-03T11:42:47.539Z,8.20
2019-03-03T11:45:23.385Z,5.63
2019-03-03T11:48:04.442Z,5.97
2019-03-03T11:50:34.063Z,5.90
2019-03-03T11:53:04.110Z,6.77
2019-03-03T11:55:36.835Z,7.20
2019-03-03T11:58:15.620Z,7.00
2019-03-03T12:00:45.776Z,6.90
2019-03-03T12:03:18.252Z,7.47
2019-03-03T12:05:48.424Z,7.33
2019-03-03T12:08:30.614Z,6.73
2019-03-03T12:11:16.556Z,6.30
2019-03-03T12:13:46.615Z,6.77
2019-03-03T12:16:34.827Z,7.40
2019-03-03T12:19:04.885Z,6.80
2019-03-03T12:21:37.392Z,7.37
2019-03-03T12:24:10.471Z,7.00
2019-03-03T12:26:57.052Z,7.20
2019-03-03T12:29:43.624Z,8.30
2019-03-03T12:32:13.713Z,6.53
2019-03-03T12:35:01.767Z,6.17
2019-03-03T12:37:43.406Z,5.47
2019-03-03T12:40:19.668Z,5.30
2019-03-03T12:42:58.441Z,5.40
2019-03-03T12:45:43.815Z,5.00
2019-03-03T12:48:25.706Z,4.77
2019-03-03T12:51:11.933Z,4.50
2019-03-03T12:53:53.825Z,4.60
2019-03-03T12:56:42.230Z,4.10
2019-03-03T12:59:21.139Z,4.10
2019-03-03T13:02:03.020Z,4.60
2019-03-03T13:04:48.350Z,4.40
2019-03-03T13:07:21.096Z,4.50
2019-03-03T13:10:02.690Z,3.90
2019-03-03T13:12:50.885Z,4.37
2019-03-03T13:15:29.776Z,3.60
2019-03-03T13:18:05.367Z,3.13
2019-03-03T13:20:35.449Z,3.10
2019-03-03T13:23:05.504Z,3.67
2019-03-03T13:25:47.637Z,3.50
2019-03-03T13:28:21.248Z,3.77
2019-03-03T13:30:57.127Z,3.87
2019-03-03T13:33:27.244Z,3.90
2019-03-03T13:35:57.344Z,3.20
2019-03-03T13:38:30.160Z,3.50
2019-03-03T13:41:03.221Z,3.37
2019-03-03T13:43:31.682Z,3.87
2019-03-03T13:46:00.084Z,3.40
2019-03-03T13:48:28.498Z,23.57
2019-03-03T13:50:56.947Z,24.07
2019-03-03T13:53:25.367Z,64.47
2019-03-03T13:55:53.877Z,5.53
2019-03-03T13:58:22.352Z,4.70
2019-03-03T14:00:50.798Z,3.80
2019-03-03T14:03:19.218Z,4.53
2019-03-03T14:05:47.733Z,9.37
2019-03-03T14:08:16.152Z,11.10
2019-03-03T14:10:44.592Z,6.00
2019-03-03T14:13:13.960Z,4.90
2019-03-03T14:15:42.402Z,5.60
2019-03-03T14:18:10.885Z,17.97
2019-03-03T14:20:39.333Z,13.07
2019-03-03T14:23:07.818Z,6.17
2019-03-03T14:25:36.309Z,14.10
2019-03-03T14:28:04.832Z,10.03
2019-03-03T14:30:33.236Z,6.20
2019-03-03T14:33:01.674Z,6.80
2019-03-03T14:35:30.159Z,17.50
2019-03-03T14:37:58.664Z,6.30
2019-03-03T14:40:27.082Z,4.43
2019-03-03T14:42:55.595Z,5.50
2019-03-03T14:45:24.080Z,4.40
2019-03-03T14:47:52.590Z,5.80
2019-03-03T14:50:22.545Z,7.93
2019-03-03T14:52:53.017Z,6.40
2019-03-03T14:55:21.494Z,6.83
2019-03-03T14:57:50.010Z,4.50
2019-03-03T15:00:24.897Z,4.83
2019-03-03T15:02:53.970Z,8.97
2019-03-03T15:05:22.552Z,16.20
2019-03-03T15:07:51.067Z,7.70
2019-03-03T15:10:19.543Z,9.40
2019-03-03T15:12:47.991Z,16.23
2019-03-03T15:15:28.471Z,9.10
2019-03-03T15:17:56.988Z,8.13
2019-03-03T15:20:25.477Z,4.43
2019-03-03T15:22:53.911Z,4.40
2019-03-03T15:25:22.389Z,8.37
2019-03-03T15:27:50.897Z,5.50
2019-03-03T15:30:21.435Z,11.20
2019-03-03T15:32:49.946Z,14.40
2019-03-03T15:35:18.420Z,12.50
2019-03-03T15:37:47.202Z,21.17
2019-03-03T15:40:25.738Z,12.47
2019-03-03T15:42:54.274Z,11.30
2019-03-03T15:45:24.104Z,6.53
2019-03-03T15:47:52.613Z,4.03
2019-03-03T15:50:22.155Z,2.80
2019-03-03T15:52:50.659Z,4.20
2019-03-03T15:55:20.918Z,3.83
2019-03-03T15:57:49.343Z,3.20
2019-03-03T16:00:20.422Z,3.23
2019-03-03T16:02:48.923Z,2.93
2019-03-03T16:05:18.369Z,3.40
2019-03-03T16:07:46.966Z,2.93
2019-03-03T16:10:17.390Z,3.13
2019-03-03T16:12:45.862Z,3.37
2019-03-03T16:15:16.234Z,3.43
2019-03-03T16:17:44.706Z,2.90
2019-03-03T16:20:22.115Z,3.53
2019-03-03T16:22:50.520Z,3.70
2019-03-03T16:25:23.737Z,3.23
2019-03-03T16:27:52.140Z,3.17
2019-03-03T16:30:21.705Z,3.47
2019-03-03T16:32:50.274Z,3.60
2019-03-03T16:35:18.781Z,3.47
2019-03-03T16:37:47.280Z,4.13
2019-03-03T16:40:24.372Z,3.73
2019-03-03T16:42:53.160Z,3.93
2019-03-03T16:45:21.907Z,3.47
2019-03-03T16:47:50.433Z,3.90
2019-03-03T16:50:20.411Z,4.00
2019-03-03T16:52:49.240Z,4.00
2019-03-03T16:55:18.780Z,4.70
2019-03-03T16:57:47.751Z,3.80
2019-03-03T17:00:25.684Z,4.13
2019-03-03T17:02:54.299Z,4.00
2019-03-03T17:05:25.148Z,4.40
2019-03-03T17:07:53.631Z,4.30
2019-03-03T17:10:22.131Z,4.03
2019-03-03T17:12:50.847Z,4.60
2019-03-03T17:15:25.273Z,4.00
2019-03-03T17:17:53.717Z,4.50
2019-03-03T17:20:22.225Z,4.90
2019-03-03T17:22:50.628Z,4.40
2019-03-03T17:25:21.518Z,4.83
2019-03-03T17:27:49.923Z,6.10
2019-03-03T17:30:20.510Z,5.33
2019-03-03T17:32:48.983Z,8.33
2019-03-03T17:35:17.492Z,5.23
2019-03-03T17:37:45.902Z,4.80
2019-03-03T17:40:16.680Z,5.27
2019-03-03T17:42:45.164Z,5.70
2019-03-03T17:45:15.864Z,5.33
2019-03-03T17:47:44.339Z,5.47
2019-03-03T17:50:14.796Z,5.43
2019-03-03T17:52:44.880Z,5.70
2019-03-03T17:55:14.171Z,6.20
2019-03-03T17:57:42.624Z,5.83
2019-03-03T18:00:19.544Z,5.67
2019-03-03T18:02:48.130Z,5.27
2019-03-03T18:05:18.287Z,5.30
2019-03-03T18:07:46.930Z,4.80
2019-03-03T18:10:15.440Z,5.03
2019-03-03T18:12:43.951Z,4.87
2019-03-03T18:15:16.567Z,4.80
2019-03-03T18:17:45.068Z,4.83
2019-03-03T18:20:19.495Z,5.10
2019-03-03T18:22:48.026Z,4.93
2019-03-03T18:25:17.973Z,4.47
2019-03-03T18:27:46.557Z,4.90
2019-03-03T18:30:20.152Z,4.70
2019-03-03T18:32:48.660Z,5.20
2019-03-03T18:35:17.207Z,4.20
2019-03-03T18:37:45.706Z,4.87
2019-03-03T18:40:25.008Z,4.20
2019-03-03T18:42:53.525Z,4.70
2019-03-03T18:45:23.360Z,3.80
2019-03-03T18:47:51.984Z,4.47
2019-03-03T18:50:28.763Z,4.60
2019-03-03T18:52:59.673Z,4.37
2019-03-03T18:55:27.403Z,4.73
2019-03-03T18:57:55.839Z,4.67
2019-03-03T19:00:31.677Z,5.00
2019-03-03T19:03:00.992Z,5.30
2019-03-03T19:05:29.470Z,5.27
2019-03-03T19:07:57.993Z,5.40
2019-03-03T19:10:32.508Z,5.00
2019-03-03T19:13:01.014Z,5.00
2019-03-03T19:15:29.489Z,4.80
2019-03-03T19:17:57.999Z,5.67
2019-03-03T19:20:26.479Z,5.30
2019-03-03T19:22:54.920Z,5.47
2019-03-03T19:25:23.397Z,5.13
2019-03-03T19:27:51.835Z,4.90
2019-03-03T19:30:23.411Z,5.40
2019-03-03T19:32:58.123Z,5.73
2019-03-03T19:35:26.606Z,5.90
2019-03-03T19:37:55.038Z,5.57
2019-03-03T19:40:23.450Z,5.60
2019-03-03T19:42:51.894Z,5.77
2019-03-03T19:45:29.089Z,6.70
2019-03-03T19:47:57.600Z,5.90
2019-03-03T19:50:26.018Z,6.17
2019-03-03T19:52:54.535Z,5.47
2019-03-03T19:55:23.337Z,6.50
2019-03-03T19:57:51.910Z,6.13
2019-03-03T20:00:23.530Z,6.80
2019-03-03T20:02:51.939Z,6.70
2019-03-03T20:05:20.461Z,6.97
2019-03-03T20:07:48.875Z,7.27
2019-03-03T20:10:17.314Z,6.40
2019-03-03T20:12:45.728Z,7.80
2019-03-03T20:15:14.227Z,7.50
2019-03-03T20:17:45.087Z,6.97
2019-03-03T20:20:16.829Z,7.10
2019-03-03T20:22:45.240Z,6.40
2019-03-03T20:25:14.215Z,6.93
2019-03-03T20:27:43.470Z,6.80
2019-03-03T20:30:19.747Z,6.40
2019-03-03T20:32:48.156Z,7.60
2019-03-03T20:35:18.365Z,7.40
2019-03-03T20:37:46.844Z,7.10
2019-03-03T20:40:20.409Z,7.60
2019-03-03T20:42:48.902Z,7.70
2019-03-03T20:45:20.246Z,7.50
2019-03-03T20:47:48.727Z,7.50
2019-03-03T20:50:19.211Z,8.00
2019-03-03T20:52:47.690Z,7.73
2019-03-03T20:55:20.720Z,8.47
2019-03-03T20:57:49.204Z,8.47
2019-03-03T21:00:19.887Z,8.60
2019-03-03T21:02:48.303Z,9.53
2019-03-03T21:05:16.757Z,8.20
2019-03-03T21:07:51.574Z,9.70
2019-03-03T21:10:21.014Z,8.70
2019-03-03T21:12:49.425Z,9.43
2019-03-03T21:15:17.939Z,8.70
2019-03-03T21:17:46.417Z,9.00
2019-03-03T21:20:16.703Z,8.77
2019-03-03T21:22:45.115Z,9.00
2019-03-03T21:25:14.962Z,9.07
2019-03-03T21:27:43.546Z,8.83
2019-03-03T21:30:26.169Z,8.53
2019-03-03T21:32:54.654Z,7.50
2019-03-03T21:35:23.164Z,8.87
2019-03-03T21:37:52.046Z,8.63
2019-03-03T21:40:24.592Z,8.80
2019-03-03T21:42:53.174Z,8.50
2019-03-03T21:45:25.941Z,8.23
2019-03-03T21:47:55.379Z,8.80
2019-03-03T21:50:25.055Z,7.80
2019-03-03T21:52:53.537Z,8.30
2019-03-03T21:55:22.051Z,8.00
2019-03-03T21:57:50.466Z,7.90
2019-03-03T22:00:39.935Z,8.53
2019-03-03T22:03:08.345Z,7.93
2019-03-03T22:05:36.790Z,8.07
2019-03-03T22:08:05.277Z,7.43
2019-03-03T22:10:33.788Z,7.43
2019-03-03T22:13:10.397Z,6.70
2019-03-03T22:15:38.902Z,8.10
2019-03-03T22:18:07.380Z,6.90
2019-03-03T22:20:35.891Z,6.77
2019-03-03T22:23:04.362Z,7.23
2019-03-03T22:25:32.973Z,6.57
2019-03-03T22:28:01.386Z,5.80
2019-03-03T22:30:29.896Z,6.63
2019-03-03T22:32:58.379Z,6.67
2019-03-03T22:35:26.818Z,5.60
2019-03-03T22:37:55.326Z,6.53
2019-03-03T22:40:25.010Z,6.30
2019-03-03T22:42:53.563Z,5.63
2019-03-03T22:45:22.849Z,5.50
2019-03-03T22:47:51.328Z,5.20
2019-03-03T22:50:20.983Z,5.13
2019-03-03T22:52:49.421Z,5.43
2019-03-03T22:55:18.775Z,5.30
2019-03-03T22:57:47.284Z,5.30
2019-03-03T23:00:26.377Z,5.27
2019-03-03T23:02:54.825Z,5.10
2019-03-03T23:05:38.402Z,5.10
2019-03-03T23:08:10.032Z,5.77
2019-03-03T23:10:50.656Z,6.00
2019-03-03T23:13:28.394Z,4.53
2019-03-03T23:16:08.579Z,4.70
2019-03-03T23:18:49.222Z,4.90
2019-03-03T23:21:26.311Z,4.40
2019-03-03T23:24:09.930Z,5.23
2019-03-03T23:26:38.372Z,4.90
2019-03-03T23:29:06.784Z,4.70
2019-03-03T23:31:35.224Z,4.37
2019-03-03T23:34:03.641Z,3.80
2019-03-03T23:36:32.150Z,4.50
2019-03-03T23:39:00.568Z,4.43
2019-03-03T23:41:28.978Z,4.80
2019-03-03T23:43:57.473Z,4.33
2019-03-03T23:46:25.913Z,4.10
2019-03-03T23:48:54.349Z,4.53
2019-03-03T23:51:22.935Z,4.23
2019-03-03T23:53:51.364Z,4.37
2019-03-03T23:56:19.772Z,4.60
2019-03-03T23:58:48.214Z,5.03
